Time;durP1;ratioP1;P1;durP2;ratioP2;P2;SDS_P1;SDS_P2;PMS_P1;PMS_P2;Temp;Humidity;BMP_temperature;BMP_pressure;BME280_temperature;BME280_humidity;BME280_pressure;Samples;Min_cycle;Max_cycle;Signal;HPM_P1;HPM_P2
2023/06/05 00:00:33;;;;;;;0.00;0.00;;;15.50;61.40;;;;;;5071350;28;20651;-60
2023/06/05 00:02:59;;;;;;;0.00;0.00;;;15.50;61.20;;;;;;5070984;28;20640;-60
2023/06/05 00:05:26;;;;;;;0.00;0.00;;;15.50;61.10;;;;;;5071553;28;20181;-60
2023/06/05 00:07:52;;;;;;;0.00;0.00;;;15.50;61.10;;;;;;5070913;28;20242;-60
2023/06/05 00:10:17;;;;;;;0.00;0.00;;;15.50;61.00;;;;;;5071232;28;20184;-60
2023/06/05 00:12:44;;;;;;;0.00;0.00;;;15.60;61.00;;;;;;5070959;28;20184;-60
2023/06/05 00:15:09;;;;;;;0.00;0.00;;;15.60;61.10;;;;;;5071057;28;20220;-60
2023/06/05 00:17:36;;;;;;;0.00;0.00;;;15.60;61.10;;;;;;5071011;28;20239;-60
2023/06/05 00:20:03;;;;;;;0.00;0.00;;;15.60;61.10;;;;;;5070567;28;20192;-60
2023/06/05 00:22:30;;;;;;;0.00;0.00;;;15.60;61.40;;;;;;5071287;28;20177;-60
2023/06/05 00:24:57;;;;;;;0.00;0.00;;;15.60;61.40;;;;;;5071089;28;20169;-60
2023/06/05 00:27:22;;;;;;;0.00;0.00;;;15.50;61.40;;;;;;5070977;28;20760;-60
2023/06/05 00:29:49;;;;;;;0.00;0.00;;;15.50;61.50;;;;;;5069410;28;20197;-60
2023/06/05 00:32:15;;;;;;;0.00;0.00;;;15.50;61.50;;;;;;5070614;28;20276;-60
2023/06/05 00:34:40;;;;;;;0.05;0.05;;;15.50;61.60;;;;;;5070566;28;20271;-60
2023/06/05 00:37:06;;;;;;;0.00;0.00;;;15.50;61.80;;;;;;5070816;28;20197;-61
2023/06/05 00:39:31;;;;;;;0.00;0.00;;;15.50;61.90;;;;;;5070790;28;20614;-60
2023/06/05 00:41:57;;;;;;;0.00;0.00;;;15.50;61.80;;;;;;5070728;28;20226;-61
2023/06/05 00:44:22;;;;;;;0.00;0.00;;;15.50;61.90;;;;;;5070457;28;20181;-60
2023/06/05 00:46:51;;;;;;;0.00;0.00;;;15.50;61.90;;;;;;5070514;28;20185;-60
2023/06/05 00:49:18;;;;;;;0.00;0.00;;;15.50;62.00;;;;;;5070841;28;20203;-60
2023/06/05 00:51:45;;;;;;;0.00;0.00;;;15.40;62.10;;;;;;5070257;28;20667;-60
2023/06/05 00:54:11;;;;;;;0.00;0.00;;;15.40;62.20;;;;;;5069926;28;20191;-60
2023/06/05 00:56:38;;;;;;;0.00;0.00;;;15.40;62.40;;;;;;5069197;28;20302;-60
2023/06/05 00:59:05;;;;;;;0.00;0.00;;;15.30;62.30;;;;;;5064182;28;20192;-61
2023/06/05 01:01:32;;;;;;;0.03;0.03;;;15.30;62.30;;;;;;5062369;28;20187;-61
2023/06/05 01:03:58;;;;;;;0.00;0.00;;;15.30;62.40;;;;;;5069827;28;20177;-60
2023/06/05 01:06:30;;;;;;;0.00;0.00;;;15.30;62.40;;;;;;5070031;28;20224;-60
2023/06/05 01:08:56;;;;;;;0.00;0.00;;;15.30;62.50;;;;;;5069524;28;20258;-60
2023/06/05 01:11:28;;;;;;;0.00;0.00;;;15.30;62.60;;;;;;5069041;28;20227;-60
2023/06/05 01:14:20;;;;;;;0.28;0.28;;;15.30;62.50;;;;;;5069659;28;20231;-60
2023/06/05 01:16:48;;;;;;;0.00;0.00;;;15.30;62.60;;;;;;5055757;28;20208;-60
2023/06/05 01:19:14;;;;;;;0.00;0.00;;;15.30;62.50;;;;;;5070033;28;20542;-60
2023/06/05 01:21:40;;;;;;;0.00;0.00;;;15.30;62.50;;;;;;5069759;28;20180;-60
2023/06/05 01:24:06;;;;;;;0.00;0.00;;;15.30;62.60;;;;;;5070018;28;20196;-60
2023/06/05 01:26:54;;;;;;;0.00;0.00;;;15.30;62.80;;;;;;5069829;28;20305;-60
2023/06/05 01:29:32;;;;;;;0.00;0.00;;;15.20;62.70;;;;;;5048271;28;20596;-60
2023/06/05 01:32:03;;;;;;;0.00;0.00;;;15.20;62.80;;;;;;5069969;28;20709;-60
2023/06/05 01:34:29;;;;;;;0.10;0.10;;;15.20;62.90;;;;;;5070299;28;20177;-60
2023/06/05 01:36:55;;;;;;;0.00;0.00;;;15.20;62.90;;;;;;5069370;28;20220;-60
2023/06/05 01:39:22;;;;;;;0.00;0.00;;;15.20;63.00;;;;;;5069480;28;20192;-60
2023/06/05 01:41:50;;;;;;;0.00;0.00;;;15.10;63.00;;;;;;5069785;28;20551;-60
2023/06/05 01:44:17;;;;;;;0.00;0.00;;;15.10;63.00;;;;;;5070065;28;20699;-59
2023/06/05 01:46:43;;;;;;;0.00;0.00;;;15.10;63.10;;;;;;5070137;28;20267;-60
2023/06/05 01:49:10;;;;;;;0.00;0.00;;;15.10;63.20;;;;;;5069990;28;20276;-61
2023/06/05 01:51:36;;;;;;;0.00;0.00;;;15.10;63.30;;;;;;5070025;28;20267;-60
2023/06/05 01:54:01;;;;;;;0.00;0.00;;;15.10;63.30;;;;;;5067862;28;20549;-60
2023/06/05 01:56:30;;;;;;;0.00;0.00;;;15.10;63.50;;;;;;5069740;28;20212;-60
2023/06/05 01:58:55;;;;;;;0.00;0.00;;;15.00;63.30;;;;;;5071615;28;20181;-60
2023/06/05 02:01:22;;;;;;;0.10;0.10;;;15.00;63.40;;;;;;5073512;28;20252;-60
2023/06/05 02:03:49;;;;;;;0.00;0.00;;;15.00;63.50;;;;;;5073266;28;20284;-60
2023/06/05 02:06:16;;;;;;;0.00;0.00;;;15.00;63.50;;;;;;5073248;28;20184;-60
2023/06/05 02:08:41;;;;;;;0.00;0.00;;;15.00;63.70;;;;;;5073457;28;20674;-60
2023/06/05 02:11:10;;;;;;;0.30;0.30;;;15.00;63.40;;;;;;5073303;28;20188;-60
2023/06/05 02:13:38;;;;;;;0.00;0.00;;;15.00;63.70;;;;;;5073421;28;20184;-60
2023/06/05 02:16:04;;;;;;;0.00;0.00;;;14.90;63.50;;;;;;5055188;28;20220;-60
2023/06/05 02:18:30;;;;;;;0.00;0.00;;;14.90;63.40;;;;;;5073006;28;20181;-60
2023/06/05 02:20:56;;;;;;;0.00;0.00;;;14.90;63.30;;;;;;5073021;28;20188;-60
2023/06/05 02:23:23;;;;;;;0.00;0.00;;;14.90;63.30;;;;;;5073214;28;20177;-60
2023/06/05 02:25:48;;;;;;;0.00;0.00;;;14.90;63.50;;;;;;5072844;28;20208;-60
2023/06/05 02:28:15;;;;;;;0.00;0.00;;;14.80;63.40;;;;;;5073039;28;20583;-60
2023/06/05 02:30:44;;;;;;;0.00;0.00;;;14.80;63.40;;;;;;5072929;28;20184;-60
2023/06/05 02:33:10;;;;;;;0.08;0.08;;;14.80;63.40;;;;;;5072668;28;20238;-60
2023/06/05 02:35:36;;;;;;;0.00;0.00;;;14.80;63.80;;;;;;5072843;28;20224;-60
2023/06/05 02:38:04;;;;;;;0.00;0.00;;;14.80;64.10;;;;;;5072752;28;20601;-60
2023/06/05 02:40:30;;;;;;;0.00;0.00;;;14.80;64.40;;;;;;5073074;28;20177;-60
2023/06/05 02:42:56;;;;;;;0.00;0.00;;;14.80;64.70;;;;;;5072723;28;20177;-60
2023/06/05 02:45:21;;;;;;;0.00;0.00;;;14.70;64.80;;;;;;5071360;28;20264;-60
2023/06/05 02:47:48;;;;;;;0.00;0.00;;;14.70;65.00;;;;;;5072196;28;20535;-60
2023/06/05 02:50:13;;;;;;;0.00;0.00;;;14.70;65.30;;;;;;5072834;28;20188;-60
2023/06/05 02:52:39;;;;;;;0.00;0.00;;;14.60;65.10;;;;;;5072272;28;20184;-60
2023/06/05 02:55:07;;;;;;;0.00;0.00;;;14.60;65.10;;;;;;5071525;28;20211;-60
2023/06/05 02:57:40;;;;;;;0.00;0.00;;;14.60;65.50;;;;;;5072377;28;20193;-60
2023/06/05 03:00:14;;;;;;;0.00;0.00;;;14.50;65.40;;;;;;5072392;28;21002;-60
2023/06/05 03:02:40;;;;;;;0.00;0.00;;;14.50;65.80;;;;;;5071904;28;20253;-60
2023/06/05 03:05:07;;;;;;;0.00;0.00;;;14.50;66.00;;;;;;5072111;28;20251;-60
2023/06/05 03:07:33;;;;;;;0.00;0.00;;;14.50;65.70;;;;;;5071604;28;20241;-60
2023/06/05 03:10:00;;;;;;;0.00;0.00;;;14.40;65.40;;;;;;5071622;28;20181;-60
2023/06/05 03:12:25;;;;;;;0.00;0.00;;;14.40;65.60;;;;;;5072361;28;20184;-60
2023/06/05 03:14:51;;;;;;;0.00;0.00;;;14.40;66.10;;;;;;5071623;28;20585;-60
2023/06/05 03:17:16;;;;;;;0.00;0.00;;;14.30;66.60;;;;;;5072252;28;20613;-60
2023/06/05 03:19:42;;;;;;;0.00;0.00;;;14.30;67.10;;;;;;5071692;28;20184;-60
2023/06/05 03:22:08;;;;;;;0.00;0.00;;;14.30;67.40;;;;;;5051015;28;20174;-60
2023/06/05 03:24:37;;;;;;;0.00;0.00;;;14.20;67.80;;;;;;5061893;28;20177;-60
2023/06/05 03:27:04;;;;;;;0.00;0.00;;;14.10;68.20;;;;;;5071818;28;20232;-59
2023/06/05 03:29:29;;;;;;;0.00;0.00;;;14.10;68.60;;;;;;5071811;28;20192;-60
2023/06/05 03:31:55;;;;;;;0.00;0.00;;;14.00;69.20;;;;;;5071906;28;20172;-59
2023/06/05 03:34:22;;;;;;;0.00;0.00;;;14.00;69.10;;;;;;5071684;28;20264;-59
2023/06/05 03:36:48;;;;;;;0.75;0.75;;;14.00;69.20;;;;;;5071629;28;20701;-60
2023/06/05 03:39:14;;;;;;;0.00;0.00;;;14.00;69.50;;;;;;5071966;28;20261;-60
2023/06/05 03:41:39;;;;;;;0.28;0.28;;;13.90;70.00;;;;;;5071562;28;20211;-60
2023/06/05 03:44:06;;;;;;;0.00;0.00;;;13.80;70.30;;;;;;5071682;28;20643;-60
2023/06/05 03:46:33;;;;;;;0.00;0.00;;;13.80;70.70;;;;;;5071873;28;20192;-59
2023/06/05 03:48:59;;;;;;;0.00;0.00;;;13.80;70.70;;;;;;5071380;28;20223;-59
2023/06/05 03:51:29;;;;;;;0.00;0.00;;;13.80;71.40;;;;;;5070617;28;20709;-59
2023/06/05 03:53:57;;;;;;;0.00;0.00;;;13.80;71.20;;;;;;5070983;28;20659;-60
2023/06/05 03:56:28;;;;;;;0.00;0.00;;;13.80;71.40;;;;;;5071349;28;20224;-61
2023/06/05 03:58:54;;;;;;;0.00;0.00;;;13.80;71.40;;;;;;5065991;28;20216;-62
2023/06/05 04:01:19;;;;;;;0.00;0.00;;;13.80;71.90;;;;;;5071182;28;20575;-62
2023/06/05 04:03:45;;;;;;;0.00;0.00;;;13.80;72.00;;;;;;5070717;28;20173;-63
2023/06/05 04:06:10;;;;;;;0.00;0.00;;;13.80;71.80;;;;;;5056065;28;20173;-62
2023/06/05 04:08:37;;;;;;;0.00;0.00;;;13.80;72.00;;;;;;5070941;28;20698;-62
2023/06/05 04:11:02;;;;;;;0.00;0.00;;;13.80;72.10;;;;;;5071557;28;20595;-62
2023/06/05 04:13:27;;;;;;;0.00;0.00;;;13.90;72.30;;;;;;5071547;28;20165;-64
2023/06/05 04:15:53;;;;;;;0.00;0.00;;;13.90;72.40;;;;;;5071312;28;20216;-63
2023/06/05 04:18:19;;;;;;;0.00;0.00;;;13.90;72.30;;;;;;5071261;28;20655;-64
2023/06/05 04:20:44;;;;;;;0.00;0.00;;;14.00;72.20;;;;;;5070301;28;20185;-64
2023/06/05 04:23:10;;;;;;;0.00;0.00;;;14.20;72.40;;;;;;5070425;28;20551;-63
2023/06/05 04:25:35;;;;;;;0.00;0.00;;;14.40;72.00;;;;;;5070166;28;20212;-63
2023/06/05 04:28:01;;;;;;;0.00;0.00;;;14.60;71.70;;;;;;5071241;28;20587;-62
2023/06/05 04:30:29;;;;;;;0.00;0.00;;;14.90;71.40;;;;;;5071453;28;20173;-62
2023/06/05 04:32:55;;;;;;;0.05;0.05;;;15.20;70.70;;;;;;5071210;28;20189;-61
2023/06/05 04:35:22;;;;;;;0.00;0.00;;;15.60;69.70;;;;;;5070855;28;20281;-61
2023/06/05 04:37:47;;;;;;;0.00;0.00;;;15.90;68.80;;;;;;5069923;28;20234;-62
2023/06/05 04:40:15;;;;;;;0.10;0.10;;;16.20;68.30;;;;;;5070828;28;20177;-63
2023/06/05 04:42:40;;;;;;;0.00;0.00;;;16.60;67.00;;;;;;5070802;28;20254;-63
2023/06/05 04:45:07;;;;;;;0.00;0.00;;;16.90;66.10;;;;;;5068741;28;20627;-63
2023/06/05 04:47:33;;;;;;;0.00;0.00;;;17.30;65.10;;;;;;5071105;28;20601;-63
2023/06/05 04:50:00;;;;;;;0.00;0.00;;;17.70;63.30;;;;;;5070520;28;20188;-63
2023/06/05 04:52:29;;;;;;;0.00;0.00;;;18.00;62.80;;;;;;5071110;28;20502;-63
2023/06/05 04:54:54;;;;;;;0.00;0.00;;;18.30;61.90;;;;;;5070730;28;20172;-63
2023/06/05 04:57:20;;;;;;;0.00;0.00;;;18.60;60.40;;;;;;5070940;28;20184;-63
2023/06/05 04:59:46;;;;;;;0.00;0.00;;;18.90;59.30;;;;;;5070516;28;20313;-63
2023/06/05 05:02:12;;;;;;;0.13;0.13;;;19.30;59.00;;;;;;5070755;28;20181;-63
2023/06/05 05:04:38;;;;;;;0.00;0.00;;;19.70;58.30;;;;;;5064124;28;20185;-63
2023/06/05 05:07:03;;;;;;;0.00;0.00;;;20.00;57.50;;;;;;5050843;28;20169;-63
2023/06/05 05:09:30;;;;;;;0.00;0.00;;;20.40;56.80;;;;;;5050923;28;20260;-63
2023/06/05 05:11:56;;;;;;;0.00;0.00;;;20.80;55.80;;;;;;5050840;28;20276;-63
2023/06/05 05:14:23;;;;;;;0.00;0.00;;;21.10;55.30;;;;;;5050963;28;20204;-63
2023/06/05 05:16:49;;;;;;;0.00;0.00;;;21.40;54.60;;;;;;5066848;28;20219;-63
2023/06/05 05:19:15;;;;;;;0.00;0.00;;;21.70;53.90;;;;;;5070833;28;20186;-63
2023/06/05 05:21:40;;;;;;;0.00;0.00;;;22.00;53.70;;;;;;5070401;28;20176;-63
2023/06/05 05:24:06;;;;;;;0.00;0.00;;;22.30;53.00;;;;;;5070423;28;20663;-63
2023/06/05 05:26:32;;;;;;;0.00;0.00;;;22.60;51.90;;;;;;5067131;28;20216;-63
2023/06/05 05:28:57;;;;;;;0.00;0.00;;;22.80;50.70;;;;;;5069519;28;20181;-63
2023/06/05 05:31:23;;;;;;;0.10;0.10;;;22.90;49.60;;;;;;5070670;28;20173;-63
2023/06/05 05:33:48;;;;;;;0.00;0.00;;;23.10;49.50;;;;;;5072257;28;20183;-63
2023/06/05 05:36:14;;;;;;;0.00;0.00;;;23.40;49.20;;;;;;5074876;28;20549;-63
2023/06/05 05:38:40;;;;;;;0.00;0.00;;;23.50;48.70;;;;;;5072995;28;20569;-62
2023/06/05 05:41:05;;;;;;;0.00;0.00;;;23.70;48.70;;;;;;5076820;28;20191;-65
2023/06/05 05:43:31;;;;;;;0.00;0.00;;;23.80;48.00;;;;;;5074049;28;20184;-63
2023/06/05 05:45:56;;;;;;;0.00;0.00;;;23.90;48.00;;;;;;5074338;28;20684;-63
2023/06/05 05:48:22;;;;;;;0.00;0.00;;;24.00;47.60;;;;;;5074492;28;20222;-63
2023/06/05 05:50:48;;;;;;;0.00;0.00;;;23.90;47.30;;;;;;5074506;28;20571;-63
2023/06/05 05:53:14;;;;;;;0.00;0.00;;;23.80;47.40;;;;;;5074693;28;20172;-63
2023/06/05 05:55:40;;;;;;;0.00;0.00;;;23.60;47.40;;;;;;5074231;28;20588;-63
2023/06/05 05:58:06;;;;;;;0.00;0.00;;;23.50;47.80;;;;;;5074486;28;20173;-63
2023/06/05 06:00:31;;;;;;;0.00;0.00;;;23.50;48.10;;;;;;5074465;28;20191;-63
2023/06/05 06:02:57;;;;;;;0.00;0.00;;;23.60;47.80;;;;;;5074032;28;20181;-63
2023/06/05 06:05:22;;;;;;;0.00;0.00;;;23.70;47.80;;;;;;5061420;28;20192;-63
2023/06/05 06:07:48;;;;;;;0.00;0.00;;;24.00;48.30;;;;;;5054208;28;20181;-63
2023/06/05 06:10:13;;;;;;;0.00;0.00;;;24.50;47.40;;;;;;5054405;28;20186;-63
2023/06/05 06:12:41;;;;;;;0.00;0.00;;;24.70;46.60;;;;;;5054208;28;20251;-63
2023/06/05 06:15:07;;;;;;;0.00;0.00;;;25.00;46.80;;;;;;5054170;28;20181;-63
2023/06/05 06:17:33;;;;;;;0.00;0.00;;;25.10;46.20;;;;;;5053979;28;20337;-63
2023/06/05 06:19:59;;;;;;;0.00;0.00;;;25.30;46.60;;;;;;5053941;28;20256;-63
2023/06/05 06:22:24;;;;;;;0.00;0.00;;;25.80;45.90;;;;;;5054001;28;20173;-63
2023/06/05 06:24:52;;;;;;;0.00;0.00;;;26.20;45.50;;;;;;5053989;28;20173;-63
2023/06/05 06:27:17;;;;;;;0.00;0.00;;;26.50;44.50;;;;;;5052752;28;20290;-63
2023/06/05 06:29:48;;;;;;;0.00;0.00;;;26.60;44.50;;;;;;5052483;28;20798;-63
2023/06/05 06:32:16;;;;;;;0.00;0.00;;;26.90;44.50;;;;;;5052718;28;20205;-63
2023/06/05 06:34:44;;;;;;;0.00;0.00;;;27.40;44.80;;;;;;5052641;28;20618;-63
2023/06/05 06:37:14;;;;;;;0.00;0.00;;;27.90;43.50;;;;;;5052530;28;20304;-63
2023/06/05 06:39:41;;;;;;;0.00;0.00;;;28.50;43.30;;;;;;5052323;28;20593;-63
2023/06/05 06:42:06;;;;;;;0.00;0.00;;;28.80;42.40;;;;;;5052619;28;21232;-63
2023/06/05 06:44:32;;;;;;;0.00;0.00;;;28.80;41.40;;;;;;5052068;28;20273;-63
2023/06/05 06:46:58;;;;;;;0.00;0.00;;;28.70;41.50;;;;;;5052293;28;20243;-63
2023/06/05 06:49:23;;;;;;;0.00;0.00;;;29.00;41.90;;;;;;5052582;28;20178;-63
2023/06/05 06:51:49;;;;;;;0.00;0.00;;;29.30;41.70;;;;;;5052076;28;20181;-63
2023/06/05 06:54:14;;;;;;;0.00;0.00;;;29.60;40.80;;;;;;5052602;28;20632;-63
2023/06/05 06:56:40;;;;;;;0.00;0.00;;;29.60;41.10;;;;;;5052211;28;20735;-63
2023/06/05 06:59:13;;;;;;;0.00;0.00;;;29.90;41.30;;;;;;5057878;28;20177;-63
2023/06/05 07:01:46;;;;;;;0.00;0.00;;;30.50;41.00;;;;;;5072230;28;20188;-63
2023/06/05 07:04:16;;;;;;;0.00;0.00;;;30.90;39.70;;;;;;5069177;28;20200;-63
2023/06/05 07:06:45;;;;;;;0.00;0.00;;;31.20;39.10;;;;;;5051998;28;20177;-64
2023/06/05 07:09:11;;;;;;;0.00;0.00;;;31.20;38.90;;;;;;5052075;28;20177;-64
2023/06/05 07:11:37;;;;;;;0.00;0.00;;;31.30;38.40;;;;;;5052071;28;20183;-64
2023/06/05 07:14:02;;;;;;;0.00;0.00;;;31.50;38.20;;;;;;5052041;28;20184;-63
2023/06/05 07:16:28;;;;;;;0.00;0.00;;;31.70;38.30;;;;;;5051728;28;20209;-64
2023/06/05 07:18:55;;;;;;;0.00;0.00;;;31.40;38.40;;;;;;5052003;28;20215;-64
2023/06/05 07:21:21;;;;;;;0.00;0.00;;;31.40;38.70;;;;;;5051918;28;20550;-62
2023/06/05 07:23:53;;;;;;;0.00;0.00;;;31.50;38.70;;;;;;5051904;28;20173;-62
2023/06/05 07:26:19;;;;;;;0.00;0.00;;;31.90;38.70;;;;;;5016352;28;1028069;-62
2023/06/05 07:28:46;;;;;;;0.00;0.00;;;32.10;38.70;;;;;;5052423;28;20196;-62
2023/06/05 07:31:12;;;;;;;0.00;0.00;;;32.40;38.30;;;;;;5052652;28;20184;-63
2023/06/05 07:33:38;;;;;;;0.00;0.00;;;32.40;37.30;;;;;;5052578;28;20176;-61
2023/06/05 07:36:04;;;;;;;0.00;0.00;;;32.30;37.80;;;;;;5052808;28;20216;-62
2023/06/05 07:38:30;;;;;;;0.00;0.00;;;32.00;37.50;;;;;;5052801;28;20177;-63
2023/06/05 07:40:58;;;;;;;0.00;0.00;;;32.10;37.70;;;;;;5052569;28;20181;-63
2023/06/05 07:43:24;;;;;;;0.10;0.10;;;32.30;37.50;;;;;;5052672;28;20666;-63
2023/06/05 07:45:50;;;;;;;0.00;0.00;;;32.30;37.70;;;;;;5052374;28;20184;-62
2023/06/05 07:48:15;;;;;;;0.00;0.00;;;32.40;38.50;;;;;;5052733;28;20180;-63
2023/06/05 07:50:41;;;;;;;0.00;0.00;;;32.30;38.30;;;;;;5052505;28;20172;-63
2023/06/05 07:53:06;;;;;;;0.00;0.00;;;32.30;37.80;;;;;;5052385;28;20184;-62
2023/06/05 07:55:32;;;;;;;0.00;0.00;;;32.30;38.90;;;;;;5051793;28;20205;-62
2023/06/05 07:57:59;;;;;;;0.00;0.00;;;32.30;38.70;;;;;;5052035;28;20721;-62
2023/06/05 08:00:26;;;;;;;0.00;0.00;;;32.30;38.40;;;;;;5068852;28;20233;-63
2023/06/05 08:02:53;;;;;;;0.00;0.00;;;32.40;38.70;;;;;;5071958;28;20191;-63
2023/06/05 08:05:19;;;;;;;0.00;0.00;;;32.40;38.40;;;;;;5066815;28;20175;-63
2023/06/05 08:07:45;;;;;;;0.00;0.00;;;32.30;38.50;;;;;;5071802;28;20180;-62
2023/06/05 08:10:11;;;;;;;0.00;0.00;;;32.00;39.40;;;;;;5072030;28;20218;-62
2023/06/05 08:12:37;;;;;;;0.00;0.00;;;32.10;40.00;;;;;;5071994;28;20215;-63
2023/06/05 08:15:03;;;;;;;0.00;0.00;;;32.30;39.30;;;;;;5071885;28;20203;-63
2023/06/05 08:17:28;;;;;;;0.00;0.00;;;32.60;39.00;;;;;;5071848;28;20184;-63
2023/06/05 08:19:54;;;;;;;0.00;0.00;;;32.80;39.50;;;;;;5071724;28;20639;-63
2023/06/05 08:22:19;;;;;;;0.00;0.00;;;33.00;39.30;;;;;;5072028;28;20183;-63
2023/06/05 08:24:45;;;;;;;0.00;0.00;;;33.10;38.30;;;;;;5071488;28;20172;-63
2023/06/05 08:27:11;;;;;;;0.00;0.00;;;33.00;38.00;;;;;;5071460;28;20235;-62
2023/06/05 08:29:37;;;;;;;0.00;0.00;;;32.80;39.00;;;;;;5071640;28;20267;-63
2023/06/05 08:32:05;;;;;;;0.10;0.10;;;32.80;39.00;;;;;;5071680;28;20647;-62
2023/06/05 08:34:31;;;;;;;0.00;0.00;;;32.80;39.60;;;;;;5071985;28;20566;-63
2023/06/05 08:36:58;;;;;;;0.00;0.00;;;32.90;39.10;;;;;;5071368;28;20208;-62
2023/06/05 08:39:27;;;;;;;0.00;0.00;;;32.70;38.70;;;;;;5071512;28;20518;-63
2023/06/05 08:41:55;;;;;;;0.00;0.00;;;32.50;40.00;;;;;;5071350;28;20681;-63
2023/06/05 08:44:21;;;;;;;0.00;0.00;;;32.40;39.60;;;;;;5071536;28;20184;-63
2023/06/05 08:46:47;;;;;;;0.00;0.00;;;32.00;39.90;;;;;;5071223;28;20181;-63
2023/06/05 08:49:17;;;;;;;0.00;0.00;;;31.60;40.50;;;;;;5071426;28;20165;-63
2023/06/05 08:51:44;;;;;;;0.00;0.00;;;31.10;41.10;;;;;;5071272;28;20184;-63
2023/06/05 08:54:13;;;;;;;0.00;0.00;;;30.80;41.80;;;;;;5071397;28;20196;-63
2023/06/05 08:56:43;;;;;;;0.00;0.00;;;30.60;42.50;;;;;;5071217;28;20208;-63
2023/06/05 08:59:10;;;;;;;0.00;0.00;;;30.50;42.70;;;;;;5071243;28;20515;-63
2023/06/05 09:01:37;;;;;;;0.00;0.00;;;30.20;43.10;;;;;;5071208;28;20555;-63
2023/06/05 09:04:02;;;;;;;0.00;0.00;;;30.00;44.10;;;;;;5071101;28;20180;-63
2023/06/05 09:06:28;;;;;;;0.00;0.00;;;29.90;44.20;;;;;;5071069;28;20176;-63
2023/06/05 09:08:54;;;;;;;0.00;0.00;;;30.10;44.60;;;;;;5070834;28;20223;-63
2023/06/05 09:11:28;;;;;;;0.00;0.00;;;30.30;44.50;;;;;;5071304;28;20525;-63
2023/06/05 09:14:01;;;;;;;0.00;0.00;;;30.60;44.60;;;;;;5071031;28;20172;-63
2023/06/05 09:16:44;;;;;;;0.00;0.00;;;30.90;43.90;;;;;;5070917;28;20221;-63
2023/06/05 09:19:11;;;;;;;0.00;0.00;;;30.80;43.40;;;;;;5071140;28;20226;-63
2023/06/05 09:21:37;;;;;;;0.05;0.05;;;30.50;44.80;;;;;;5070993;28;20177;-63
2023/06/05 09:24:13;;;;;;;0.00;0.00;;;30.60;44.70;;;;;;5070978;28;20176;-63
2023/06/05 09:26:50;;;;;;;0.00;0.00;;;30.70;44.20;;;;;;5070774;28;20303;-63
2023/06/05 09:29:26;;;;;;;0.00;0.00;;;30.80;44.40;;;;;;5071076;28;20287;-62
2023/06/05 09:31:57;;;;;;;0.00;0.00;;;30.50;44.70;;;;;;5070901;28;20173;-63
2023/06/05 09:34:27;;;;;;;0.00;0.00;;;30.40;45.40;;;;;;5070841;28;20172;-63
2023/06/05 09:36:54;;;;;;;0.00;0.00;;;30.40;45.90;;;;;;5070638;28;20621;-63
2023/06/05 09:39:21;;;;;;;0.00;0.00;;;30.50;45.80;;;;;;5071041;28;20177;-63
2023/06/05 09:41:51;;;;;;;0.00;0.00;;;30.60;46.20;;;;;;5070638;28;20512;-63
2023/06/05 09:44:18;;;;;;;0.00;0.00;;;30.80;46.50;;;;;;5070914;28;20173;-63
2023/06/05 09:46:59;;;;;;;0.00;0.00;;;31.10;46.40;;;;;;5070765;28;20226;-63
2023/06/05 09:49:39;;;;;;;0.00;0.00;;;31.30;45.70;;;;;;5070575;28;20275;-63
2023/06/05 09:52:07;;;;;;;0.00;0.00;;;31.50;45.60;;;;;;5070568;28;20185;-63
2023/06/05 09:54:32;;;;;;;0.00;0.00;;;31.40;46.30;;;;;;5070826;28;20255;-63
2023/06/05 09:57:04;;;;;;;0.28;0.28;;;31.10;46.80;;;;;;5070403;28;20608;-63
2023/06/05 09:59:34;;;;;;;0.00;0.00;;;31.10;47.00;;;;;;5070554;28;20569;-63
2023/06/05 10:02:04;;;;;;;0.10;0.10;;;30.90;47.50;;;;;;5070450;28;20188;-63
2023/06/05 10:04:43;;;;;;;0.00;0.00;;;30.80;47.10;;;;;;5070758;28;20173;-63
2023/06/05 10:07:09;;;;;;;0.00;0.00;;;30.50;47.60;;;;;;5070610;28;20234;-62
2023/06/05 10:09:36;;;;;;;0.00;0.00;;;30.40;48.60;;;;;;5070545;28;20256;-63
2023/06/05 10:12:04;;;;;;;0.00;0.00;;;30.10;48.60;;;;;;5070567;28;20560;-62
2023/06/05 10:14:29;;;;;;;0.00;0.00;;;29.80;48.90;;;;;;5070465;28;20656;-62
2023/06/05 10:16:57;;;;;;;0.00;0.00;;;29.70;49.60;;;;;;5070443;28;20212;-63
2023/06/05 10:19:24;;;;;;;0.10;0.10;;;29.90;49.40;;;;;;5071637;28;20173;-63
2023/06/05 10:21:50;;;;;;;0.00;0.00;;;30.10;49.60;;;;;;5074195;28;20187;-63
2023/06/05 10:24:30;;;;;;;0.00;0.00;;;30.30;48.30;;;;;;5074090;28;20181;-62
2023/06/05 10:27:11;;;;;;;0.20;0.20;;;30.10;47.30;;;;;;5073811;28;20311;-62
2023/06/05 10:29:55;;;;;;;0.10;0.10;;;29.90;47.20;;;;;;5073971;28;20177;-62
2023/06/05 10:32:36;;;;;;;0.00;0.00;;;30.00;47.40;;;;;;5074045;28;20175;-62
2023/06/05 10:35:30;;;;;;;0.00;0.00;;;30.40;46.60;;;;;;5073791;28;20176;-62
2023/06/05 10:38:13;;;;;;;0.10;0.10;;;30.50;44.60;;;;;;5073691;28;20172;-62
2023/06/05 10:40:39;;;;;;;0.00;0.00;;;30.60;45.40;;;;;;5073807;28;20180;-63
2023/06/05 10:43:35;;;;;;;0.00;0.00;;;30.50;44.00;;;;;;5073544;28;20183;-62
2023/06/05 10:46:27;;;;;;;0.00;0.00;;;30.50;44.00;;;;;;5073616;28;20177;-62
2023/06/05 10:49:07;;;;;;;0.00;0.00;;;30.80;42.30;;;;;;5073696;28;20760;-62
2023/06/05 10:51:40;;;;;;;0.00;0.00;;;30.80;40.50;;;;;;5073651;28;20219;-62
2023/06/05 10:54:08;;;;;;;0.00;0.00;;;30.50;40.80;;;;;;5073632;28;20185;-62
2023/06/05 10:56:59;;;;;;;0.00;0.00;;;30.30;41.10;;;;;;5073505;28;20216;-63
2023/06/05 10:59:24;;;;;;;0.00;0.00;;;30.20;38.50;;;;;;5073288;28;20234;-62
2023/06/05 11:02:15;;;;;;;0.00;0.00;;;30.10;39.20;;;;;;5073255;28;20173;-62
2023/06/05 11:04:46;;;;;;;0.00;0.00;;;30.10;40.60;;;;;;5073317;28;20181;-62
2023/06/05 11:07:24;;;;;;;0.00;0.00;;;30.10;39.20;;;;;;5073399;28;20197;-62
2023/06/05 11:10:02;;;;;;;0.00;0.00;;;30.20;36.10;;;;;;5073296;28;20173;-62
2023/06/05 11:12:40;;;;;;;0.00;0.00;;;30.30;37.00;;;;;;5073280;28;20164;-63
2023/06/05 11:15:11;;;;;;;0.00;0.00;;;30.30;38.40;;;;;;5072883;28;20176;-62
2023/06/05 11:17:39;;;;;;;0.00;0.00;;;30.10;38.60;;;;;;5072066;28;20185;-63
2023/06/05 11:20:28;;;;;;;0.00;0.00;;;30.00;38.70;;;;;;5073037;28;20579;-62
2023/06/05 11:22:57;;;;;;;0.08;0.08;;;29.90;38.90;;;;;;5072886;28;20177;-62
2023/06/05 11:25:29;;;;;;;0.00;0.00;;;29.60;38.00;;;;;;5072945;28;20366;-63
2023/06/05 11:28:04;;;;;;;0.00;0.00;;;29.80;38.70;;;;;;5072935;28;20168;-62
2023/06/05 11:30:34;;;;;;;0.00;0.00;;;30.00;38.70;;;;;;5072002;28;20171;-62
2023/06/05 11:33:12;;;;;;;0.00;0.00;;;30.20;38.20;;;;;;5072524;28;20203;-63
2023/06/05 11:35:38;;;;;;;0.00;0.00;;;30.40;38.10;;;;;;5072857;28;20220;-63
2023/06/05 11:38:18;;;;;;;0.00;0.00;;;30.40;36.60;;;;;;5072671;28;20173;-62
2023/06/05 11:40:44;;;;;;;0.00;0.00;;;30.30;37.70;;;;;;5072751;28;20301;-63
2023/06/05 11:43:11;;;;;;;0.00;0.00;;;30.20;38.30;;;;;;5072654;28;20495;-63
2023/06/05 11:45:39;;;;;;;0.00;0.00;;;30.20;39.00;;;;;;5072729;28;20201;-63
2023/06/05 11:48:12;;;;;;;0.00;0.00;;;30.10;38.10;;;;;;5072546;28;20317;-62
2023/06/05 11:50:39;;;;;;;0.00;0.00;;;29.90;37.10;;;;;;5072531;28;20258;-62
2023/06/05 11:53:10;;;;;;;0.00;0.00;;;29.80;35.60;;;;;;5072636;28;20187;-62
2023/06/05 11:58:24;;;;;;;0.00;0.00;;;30.10;37.70;;;;;;5072554;28;20179;-61
2023/06/05 12:00:51;;;;;;;0.00;0.00;;;30.30;36.80;;;;;;5052229;28;20541;-62
2023/06/05 12:03:20;;;;;;;0.00;0.00;;;30.20;37.00;;;;;;5063044;28;20340;-63
2023/06/05 12:05:48;;;;;;;0.00;0.00;;;30.00;37.10;;;;;;5069935;28;20175;-63
2023/06/05 12:08:27;;;;;;;0.00;0.00;;;30.10;37.80;;;;;;5071945;28;20185;-63
2023/06/05 12:10:53;;;;;;;0.00;0.00;;;30.20;37.70;;;;;;5072086;28;20264;-63
2023/06/05 12:13:19;;;;;;;0.00;0.00;;;30.30;37.40;;;;;;5072198;28;20176;-63
2023/06/05 12:15:58;;;;;;;0.08;0.08;;;30.30;38.00;;;;;;5070564;28;20204;-63
2023/06/05 12:18:33;;;;;;;0.00;0.00;;;30.30;37.90;;;;;;5071966;28;20177;-63
2023/06/05 12:21:00;;;;;;;0.00;0.00;;;30.10;37.70;;;;;;5071807;28;20176;-63
2023/06/05 12:23:26;;;;;;;0.00;0.00;;;30.10;37.20;;;;;;5071726;28;20181;-63
2023/06/05 12:26:02;;;;;;;0.00;0.00;;;30.00;38.20;;;;;;5071316;28;20224;-63
2023/06/05 12:28:29;;;;;;;0.00;0.00;;;30.10;38.00;;;;;;5071602;28;20206;-63
2023/06/05 12:30:55;;;;;;;0.00;0.00;;;30.20;37.80;;;;;;5071608;28;20699;-63
2023/06/05 12:33:24;;;;;;;0.00;0.00;;;30.00;37.40;;;;;;5071562;28;20319;-63
2023/06/05 12:36:03;;;;;;;0.00;0.00;;;29.90;37.50;;;;;;5071387;28;20204;-62
2023/06/05 12:38:28;;;;;;;0.00;0.00;;;29.80;36.80;;;;;;5071491;28;20679;-63
2023/06/05 12:40:54;;;;;;;0.00;0.00;;;29.60;36.50;;;;;;5071572;28;20187;-62
2023/06/05 12:43:20;;;;;;;0.00;0.00;;;29.50;36.00;;;;;;5071250;28;20176;-63
2023/06/05 12:45:45;;;;;;;0.00;0.00;;;29.50;36.40;;;;;;5071284;28;20187;-62
2023/06/05 12:48:12;;;;;;;0.00;0.00;;;29.60;35.70;;;;;;5071693;28;20191;-62
2023/06/05 12:50:41;;;;;;;0.00;0.00;;;29.60;35.10;;;;;;5071386;28;20246;-62
2023/06/05 12:53:07;;;;;;;0.08;0.08;;;29.60;35.60;;;;;;5071102;28;20643;-63
2023/06/05 12:55:32;;;;;;;0.00;0.00;;;29.60;36.10;;;;;;5071312;28;20204;-63